Time;durP1;ratioP1;P1;durP2;ratioP2;P2;SDS_P1;SDS_P2;PMS_P1;PMS_P2;Temp;Humidity;BMP_temperature;BMP_pressure;BME280_temperature;BME280_humidity;BME280_pressure;Samples;Min_cycle;Max_cycle;Signal;HPM_P1;HPM_P2
2023/07/07 00:00:03;;;;;;;;;;;23.40;90.10;;;;;;5096106;28;20310;-49
2023/07/07 00:02:29;;;;;;;;;;;23.40;90.30;;;;;;5095995;28;19927;-48
2023/07/07 00:04:54;;;;;;;;;;;23.40;90.10;;;;;;5095715;28;20359;-51
2023/07/07 00:07:20;;;;;;;;;;;23.40;90.10;;;;;;5095705;28;19991;-51
2023/07/07 00:09:46;;;;;;;;;;;23.40;90.10;;;;;;5095719;28;19958;-52
2023/07/07 00:12:13;;;;;;;;;;;23.40;90.10;;;;;;5095485;28;20437;-48
2023/07/07 00:14:38;;;;;;;;;;;23.30;90.10;;;;;;5095418;28;19908;-50
2023/07/07 00:17:04;;;;;;;;;;;23.40;90.10;;;;;;5095476;28;20020;-53
2023/07/07 00:19:33;;;;;;;;;;;23.30;90.10;;;;;;5095677;28;19904;-51
2023/07/07 00:21:59;;;;;;;;;;;23.30;90.10;;;;;;5095323;28;19919;-53
2023/07/07 00:24:25;;;;;;;;;;;23.30;90.10;;;;;;5095309;28;20339;-50
2023/07/07 00:26:50;;;;;;;;;;;23.30;90.10;;;;;;5095155;28;19930;-51
2023/07/07 00:29:16;;;;;;;;;;;23.30;90.10;;;;;;5095193;28;19904;-51
2023/07/07 00:31:42;;;;;;;;;;;23.30;90.10;;;;;;5095095;28;19953;-53
2023/07/07 00:34:07;;;;;;;;;;;23.40;90.20;;;;;;5077237;28;19941;-49
2023/07/07 00:36:32;;;;;;;;;;;23.30;90.10;;;;;;5095082;28;19994;-49
2023/07/07 00:38:58;;;;;;;;;;;23.30;90.10;;;;;;5095254;28;19946;-51
2023/07/07 00:41:23;;;;;;;;;;;23.40;90.20;;;;;;5095344;28;19904;-48
2023/07/07 00:44:00;;;;;;;;;;;23.40;90.20;;;;;;5094880;28;20319;-52
2023/07/07 00:46:25;;;;;;;;;;;23.30;90.10;;;;;;5095166;28;19989;-49
2023/07/07 00:48:51;;;;;;;;;;;23.30;90.10;;;;;;5094755;28;20327;-51
2023/07/07 00:51:20;;;;;;;;;;;23.30;90.10;;;;;;5094632;28;19915;-52
2023/07/07 00:53:48;;;;;;;;;;;23.30;90.10;;;;;;5094724;28;20354;-53
2023/07/07 00:56:17;;;;;;;;;;;23.30;90.10;;;;;;5094700;28;19904;-48
2023/07/07 00:58:43;;;;;;;;;;;23.30;90.10;;;;;;5094645;28;19943;-51
2023/07/07 01:01:13;;;;;;;;;;;23.30;90.10;;;;;;5095005;28;20296;-50
2023/07/07 01:03:41;;;;;;;;;;;23.30;90.10;;;;;;5076315;28;20046;-49
2023/07/07 01:06:09;;;;;;;;;;;23.30;90.10;;;;;;5094504;28;19918;-48
2023/07/07 01:08:36;;;;;;;;;;;23.30;90.10;;;;;;5094850;28;19904;-52
2023/07/07 01:11:02;;;;;;;;;;;23.30;90.10;;;;;;5094752;28;19908;-51
2023/07/07 01:13:27;;;;;;;;;;;23.30;90.10;;;;;;5094643;28;19912;-52
2023/07/07 01:16:00;;;;;;;;;;;23.30;90.10;;;;;;5094657;28;20331;-52
2023/07/07 01:18:25;;;;;;;;;;;23.30;90.10;;;;;;5094350;28;19910;-50
2023/07/07 01:21:03;;;;;;;;;;;23.30;90.10;;;;;;5094612;28;19904;-52
2023/07/07 01:23:43;;;;;;;;;;;23.30;90.10;;;;;;5094395;28;19915;-49
2023/07/07 01:26:09;;;;;;;;;;;23.30;90.10;;;;;;5094148;28;19910;-49
2023/07/07 01:28:53;;;;;;;;;;;23.30;90.10;;;;;;5094702;28;19986;-54
2023/07/07 01:31:28;;;;;;;;;;;23.30;90.10;;;;;;5079510;28;20308;-49
2023/07/07 01:33:53;;;;;;;;;;;23.30;90.10;;;;;;5074305;28;19912;-51
2023/07/07 01:36:19;;;;;;;;;;;23.30;90.10;;;;;;5081981;28;19957;-50
2023/07/07 01:38:45;;;;;;;;;;;23.30;90.10;;;;;;5094028;28;19908;-50
2023/07/07 01:41:13;;;;;;;;;;;23.30;90.10;;;;;;5094077;28;19904;-50
2023/07/07 01:43:44;;;;;;;;;;;23.30;90.10;;;;;;5094288;28;19904;-51
2023/07/07 01:46:12;;;;;;;;;;;23.30;90.20;;;;;;5093825;28;19916;-48
2023/07/07 01:48:49;;;;;;;;;;;23.30;90.20;;;;;;5094731;28;19908;-52
2023/07/07 01:51:16;;;;;;;;;;;23.30;90.20;;;;;;5093871;28;19955;-49
2023/07/07 01:53:43;;;;;;;;;;;23.30;90.20;;;;;;5094124;28;19914;-50
2023/07/07 01:56:10;;;;;;;;;;;23.30;90.20;;;;;;5093792;28;19904;-49
2023/07/07 01:58:35;;;;;;;;;;;23.30;90.20;;;;;;5075763;28;19904;-50
2023/07/07 02:01:01;;;;;;;;;;;23.30;90.20;;;;;;5093776;28;19911;-49
2023/07/07 02:03:27;;;;;;;;;;;23.30;90.20;;;;;;5094028;28;19908;-52
2023/07/07 02:05:52;;;;;;;;;;;23.30;90.20;;;;;;5094422;28;19904;-51
2023/07/07 02:08:18;;;;;;;;;;;23.30;90.20;;;;;;5094131;28;19957;-50
2023/07/07 02:10:43;;;;;;;;;;;23.30;90.30;;;;;;5075841;28;19908;-50
2023/07/07 02:13:10;;;;;;;;;;;23.30;90.20;;;;;;5094868;28;19950;-50
2023/07/07 02:15:35;;;;;;;;;;;23.30;90.20;;;;;;5080133;28;19904;-52
2023/07/07 02:18:01;;;;;;;;;;;23.30;90.20;;;;;;5097829;28;19911;-49
2023/07/07 02:20:27;;;;;;;;;;;23.30;90.20;;;;;;5098039;28;19995;-52
2023/07/07 02:22:52;;;;;;;;;;;23.30;90.20;;;;;;5098546;28;19951;-52
2023/07/07 02:25:18;;;;;;;;;;;23.30;90.30;;;;;;5097881;28;19927;-49
2023/07/07 02:27:43;;;;;;;;;;;23.30;90.20;;;;;;5096619;28;19912;-50
2023/07/07 02:30:09;;;;;;;;;;;23.30;90.30;;;;;;5097544;28;20347;-50
2023/07/07 02:32:34;;;;;;;;;;;23.30;90.30;;;;;;5097825;28;19995;-54
2023/07/07 02:35:01;;;;;;;;;;;23.30;90.30;;;;;;5097532;28;19911;-52
2023/07/07 02:37:26;;;;;;;;;;;23.30;90.30;;;;;;5099501;28;19912;-50
2023/07/07 02:39:52;;;;;;;;;;;23.30;90.30;;;;;;5103641;28;20358;-50
2023/07/07 02:42:17;;;;;;;;;;;23.30;90.30;;;;;;5117861;28;19916;-50
2023/07/07 02:44:42;;;;;;;;;;;23.30;90.30;;;;;;5100419;28;19931;-48
2023/07/07 02:47:08;;;;;;;;;;;23.30;90.30;;;;;;5081625;28;19933;-53
2023/07/07 02:49:34;;;;;;;;;;;23.20;90.30;;;;;;5089785;28;19951;-52
2023/07/07 02:52:00;;;;;;;;;;;23.30;90.30;;;;;;5097010;28;19919;-51
2023/07/07 02:54:25;;;;;;;;;;;23.20;90.60;;;;;;5097152;28;19922;-53
2023/07/07 02:56:51;;;;;;;;;;;23.30;90.40;;;;;;5101955;28;20275;-53
2023/07/07 02:59:16;;;;;;;;;;;23.30;90.40;;;;;;5096988;28;20003;-50
2023/07/07 03:01:44;;;;;;;;;;;23.30;90.40;;;;;;5097147;28;19990;-50
2023/07/07 03:04:10;;;;;;;;;;;23.20;90.40;;;;;;5096798;28;19908;-48
2023/07/07 03:06:36;;;;;;;;;;;23.30;90.40;;;;;;5097197;28;19953;-49
2023/07/07 03:09:02;;;;;;;;;;;23.20;90.40;;;;;;5096832;28;19962;-51
2023/07/07 03:11:27;;;;;;;;;;;23.20;90.40;;;;;;5097009;28;19923;-51
2023/07/07 03:13:53;;;;;;;;;;;23.30;90.50;;;;;;5103416;28;19918;-54
2023/07/07 03:16:20;;;;;;;;;;;23.30;90.50;;;;;;5117312;28;20420;-52
2023/07/07 03:18:47;;;;;;;;;;;23.30;90.50;;;;;;5116793;28;19931;-49
2023/07/07 03:21:12;;;;;;;;;;;23.30;90.50;;;;;;5116977;28;19908;-53
2023/07/07 03:23:39;;;;;;;;;;;23.30;90.50;;;;;;5116920;28;19915;-53
2023/07/07 03:26:23;;;;;;;;;;;23.20;90.50;;;;;;5116150;28;20430;-49
2023/07/07 03:28:49;;;;;;;;;;;23.20;90.50;;;;;;5116998;28;19908;-52
2023/07/07 03:31:16;;;;;;;;;;;23.20;90.50;;;;;;5115568;28;20003;-51
2023/07/07 03:33:42;;;;;;;;;;;23.20;90.50;;;;;;5116584;28;19957;-51
2023/07/07 03:36:12;;;;;;;;;;;23.20;90.50;;;;;;5116583;28;19955;-48
2023/07/07 03:38:39;;;;;;;;;;;23.20;90.50;;;;;;5116582;28;19988;-51
2023/07/07 03:41:04;;;;;;;;;;;23.20;90.50;;;;;;5112925;28;20021;-52
2023/07/07 03:43:33;;;;;;;;;;;23.20;90.70;;;;;;5096685;28;19961;-49
2023/07/07 03:45:59;;;;;;;;;;;23.20;90.50;;;;;;5094769;28;20018;-51
2023/07/07 03:48:25;;;;;;;;;;;23.20;83.10;;;;;;5096460;28;19916;-51
2023/07/07 03:50:56;;;;;;;;;;;23.10;84.50;;;;;;5095675;28;19919;-49
2023/07/07 03:53:22;;;;;;;;;;;23.10;87.80;;;;;;5095379;28;20139;-53
2023/07/07 03:55:47;;;;;;;;;;;23.10;89.10;;;;;;5093794;28;20360;-49
2023/07/07 03:58:12;;;;;;;;;;;23.10;89.60;;;;;;5093708;28;19985;-51
2023/07/07 04:00:38;;;;;;;;;;;23.20;89.90;;;;;;5092610;28;19908;-50
2023/07/07 04:03:03;;;;;;;;;;;23.20;90.00;;;;;;5093904;28;20377;-53
2023/07/07 04:05:29;;;;;;;;;;;23.20;90.00;;;;;;5093746;28;19909;-49
2023/07/07 04:07:54;;;;;;;;;;;23.20;90.00;;;;;;5093906;28;19914;-49
2023/07/07 04:10:20;;;;;;;;;;;23.10;90.00;;;;;;5094919;28;20301;-47
2023/07/07 04:12:45;;;;;;;;;;;23.20;90.00;;;;;;5094138;28;19934;-50
2023/07/07 04:15:11;;;;;;;;;;;23.20;90.10;;;;;;5095940;28;19915;-48
2023/07/07 04:17:36;;;;;;;;;;;23.20;90.10;;;;;;5095567;28;19908;-49
2023/07/07 04:20:03;;;;;;;;;;;23.20;90.10;;;;;;5095589;28;19908;-48
2023/07/07 04:22:29;;;;;;;;;;;23.20;90.10;;;;;;5095256;28;20320;-50
2023/07/07 04:25:08;;;;;;;;;;;23.20;90.20;;;;;;5095664;28;19908;-50
2023/07/07 04:27:33;;;;;;;;;;;23.20;90.20;;;;;;5094898;28;19912;-50
2023/07/07 04:29:59;;;;;;;;;;;23.10;90.20;;;;;;5095302;28;20003;-51
2023/07/07 04:32:24;;;;;;;;;;;23.10;90.30;;;;;;5094985;28;20355;-50
2023/07/07 04:34:50;;;;;;;;;;;23.20;90.30;;;;;;5094915;28;19908;-48
2023/07/07 04:37:16;;;;;;;;;;;23.10;90.30;;;;;;5094236;28;19908;-50
2023/07/07 04:39:41;;;;;;;;;;;23.10;90.20;;;;;;5095284;28;20325;-53
2023/07/07 04:42:07;;;;;;;;;;;23.10;90.20;;;;;;5095613;28;19912;-52
2023/07/07 04:44:32;;;;;;;;;;;23.10;90.20;;;;;;5095063;28;20007;-53
2023/07/07 04:46:58;;;;;;;;;;;23.10;90.20;;;;;;5095107;28;19998;-53
2023/07/07 04:49:23;;;;;;;;;;;23.10;90.20;;;;;;5095399;28;19914;-49
2023/07/07 04:51:49;;;;;;;;;;;23.10;90.30;;;;;;5093618;28;20401;-47
2023/07/07 04:54:14;;;;;;;;;;;23.10;90.20;;;;;;5094544;28;19920;-53
2023/07/07 04:56:40;;;;;;;;;;;23.10;90.20;;;;;;5094908;28;19914;-53
2023/07/07 04:59:06;;;;;;;;;;;23.10;90.20;;;;;;5094622;28;20362;-51
2023/07/07 05:01:32;;;;;;;;;;;23.10;90.20;;;;;;5094519;28;20294;-54
2023/07/07 05:03:59;;;;;;;;;;;23.10;90.20;;;;;;5094358;28;19923;-52
2023/07/07 05:06:25;;;;;;;;;;;23.10;90.20;;;;;;5094838;28;19915;-51
2023/07/07 05:08:51;;;;;;;;;;;23.10;90.20;;;;;;5094916;28;19914;-51
2023/07/07 05:11:18;;;;;;;;;;;23.10;90.30;;;;;;5094430;28;20050;-51
2023/07/07 05:13:47;;;;;;;;;;;23.10;90.30;;;;;;5094254;28;19919;-49
2023/07/07 05:16:13;;;;;;;;;;;23.10;90.30;;;;;;5094064;28;20363;-51
2023/07/07 05:18:39;;;;;;;;;;;23.10;90.30;;;;;;5094629;28;19908;-51
2023/07/07 05:21:05;;;;;;;;;;;23.10;90.30;;;;;;5094245;28;19908;-51
2023/07/07 05:23:31;;;;;;;;;;;23.10;90.30;;;;;;5094010;28;20363;-50
2023/07/07 05:25:56;;;;;;;;;;;23.10;90.30;;;;;;5094089;28;19948;-51
2023/07/07 05:28:22;;;;;;;;;;;23.10;90.30;;;;;;5093751;28;20355;-50
2023/07/07 05:30:47;;;;;;;;;;;23.10;90.30;;;;;;5093777;28;19922;-52
2023/07/07 05:33:13;;;;;;;;;;;23.10;90.30;;;;;;5094337;28;19912;-48
2023/07/07 05:35:49;;;;;;;;;;;23.10;90.30;;;;;;5093693;28;19978;-50
2023/07/07 05:38:16;;;;;;;;;;;23.10;90.30;;;;;;5093536;28;19908;-50
2023/07/07 05:40:45;;;;;;;;;;;23.10;90.30;;;;;;5093971;28;19915;-51
2023/07/07 05:43:14;;;;;;;;;;;23.10;90.30;;;;;;5093552;28;19915;-52
2023/07/07 05:45:40;;;;;;;;;;;23.10;90.20;;;;;;5093629;28;19920;-50
2023/07/07 05:48:05;;;;;;;;;;;23.10;90.20;;;;;;5090655;28;19919;-50
2023/07/07 05:50:31;;;;;;;;;;;23.10;90.20;;;;;;5108858;28;19916;-53
2023/07/07 05:52:56;;;;;;;;;;;23.00;84.30;;;;;;5112788;28;19955;-52
2023/07/07 05:55:28;;;;;;;;;;;23.00;82.40;;;;;;5091647;28;19919;-50
2023/07/07 05:57:54;;;;;;;;;;;22.80;81.80;;;;;;5113948;28;19983;-52
2023/07/07 06:00:19;;;;;;;;;;;22.70;81.90;;;;;;5094660;28;20366;-51
2023/07/07 06:02:45;;;;;;;;;;;22.70;82.10;;;;;;5112437;28;19911;-50
2023/07/07 06:05:10;;;;;;;;;;;22.70;83.60;;;;;;5109315;28;19952;-47
2023/07/07 06:07:36;;;;;;;;;;;22.80;85.10;;;;;;5092765;28;19918;-50
2023/07/07 06:10:01;;;;;;;;;;;22.80;85.30;;;;;;5092343;28;19919;-48
2023/07/07 06:12:27;;;;;;;;;;;22.90;86.10;;;;;;5104884;28;19958;-51
2023/07/07 06:14:52;;;;;;;;;;;22.90;86.90;;;;;;5110467;28;19912;-53
2023/07/07 06:17:18;;;;;;;;;;;22.90;86.70;;;;;;5111537;28;20316;-49
2023/07/07 06:19:43;;;;;;;;;;;22.80;86.20;;;;;;5098668;28;19913;-49
2023/07/07 06:22:08;;;;;;;;;;;22.80;86.30;;;;;;5093273;28;19970;-52
2023/07/07 06:24:34;;;;;;;;;;;22.80;86.60;;;;;;5075421;28;19915;-52
2023/07/07 06:26:59;;;;;;;;;;;22.80;87.10;;;;;;5093098;28;20006;-51
2023/07/07 06:29:25;;;;;;;;;;;22.90;87.80;;;;;;5093175;28;19908;-49
2023/07/07 06:31:50;;;;;;;;;;;22.90;88.30;;;;;;5092913;28;19980;-53
2023/07/07 06:34:16;;;;;;;;;;;22.90;88.60;;;;;;5093444;28;19912;-53
2023/07/07 06:36:41;;;;;;;;;;;22.90;88.90;;;;;;5092988;28;20382;-48
2023/07/07 06:39:07;;;;;;;;;;;22.90;88.90;;;;;;5093417;28;20343;-50
2023/07/07 06:41:32;;;;;;;;;;;22.90;89.10;;;;;;5093402;28;19908;-51
2023/07/07 06:43:58;;;;;;;;;;;22.90;89.30;;;;;;5092891;28;19912;-49
2023/07/07 06:46:24;;;;;;;;;;;23.00;89.40;;;;;;5093183;28;19908;-50
2023/07/07 06:48:50;;;;;;;;;;;23.00;89.50;;;;;;5093247;28;19912;-49
2023/07/07 06:51:15;;;;;;;;;;;23.00;89.50;;;;;;5093048;28;19912;-49
2023/07/07 06:53:41;;;;;;;;;;;22.90;89.50;;;;;;5092912;28;19912;-48
2023/07/07 06:56:06;;;;;;;;;;;23.00;89.70;;;;;;5093078;28;19931;-50
2023/07/07 06:58:33;;;;;;;;;;;23.00;89.80;;;;;;5093302;28;19952;-48
2023/07/07 07:00:59;;;;;;;;;;;23.00;89.80;;;;;;5095287;28;19931;-50
2023/07/07 07:03:24;;;;;;;;;;;23.00;89.70;;;;;;5096862;28;19908;-51
2023/07/07 07:05:50;;;;;;;;;;;23.00;89.60;;;;;;5096909;28;19908;-53
2023/07/07 07:08:15;;;;;;;;;;;23.00;89.80;;;;;;5078476;28;20332;-52
2023/07/07 07:10:41;;;;;;;;;;;23.00;89.90;;;;;;5096292;28;19912;-51
2023/07/07 07:13:08;;;;;;;;;;;23.00;89.90;;;;;;5096297;28;20263;-48
2023/07/07 07:15:33;;;;;;;;;;;23.00;89.90;;;;;;5096271;28;20002;-47
2023/07/07 07:17:59;;;;;;;;;;;23.00;90.00;;;;;;5096324;28;20327;-51
2023/07/07 07:20:24;;;;;;;;;;;23.00;90.00;;;;;;5096224;28;19908;-53
2023/07/07 07:22:50;;;;;;;;;;;23.00;90.00;;;;;;5096371;28;19999;-53
2023/07/07 07:25:16;;;;;;;;;;;23.00;90.00;;;;;;5096383;28;20007;-52
2023/07/07 07:27:41;;;;;;;;;;;22.90;90.10;;;;;;5096359;28;19944;-51
2023/07/07 07:30:07;;;;;;;;;;;23.00;90.10;;;;;;5095930;28;20040;-51
2023/07/07 07:32:33;;;;;;;;;;;22.90;90.10;;;;;;5095684;28;19912;-51
2023/07/07 07:34:59;;;;;;;;;;;23.00;90.10;;;;;;5095993;28;19914;-49
2023/07/07 07:37:25;;;;;;;;;;;23.00;90.10;;;;;;5077855;28;19908;-50
2023/07/07 07:39:50;;;;;;;;;;;23.00;90.10;;;;;;5095920;28;20327;-51
2023/07/07 07:42:16;;;;;;;;;;;23.00;90.10;;;;;;5095869;28;19951;-47
2023/07/07 07:44:42;;;;;;;;;;;23.00;90.10;;;;;;5095784;28;19924;-53
2023/07/07 07:47:07;;;;;;;;;;;23.00;90.10;;;;;;5078090;28;20010;-52
2023/07/07 07:49:33;;;;;;;;;;;23.00;90.20;;;;;;5095670;28;19908;-52
2023/07/07 07:51:58;;;;;;;;;;;23.00;90.10;;;;;;5093086;28;19966;-51
2023/07/07 07:54:24;;;;;;;;;;;22.90;90.10;;;;;;5080408;28;19921;-52
2023/07/07 07:56:51;;;;;;;;;;;22.90;90.10;;;;;;5075677;28;20301;-49
2023/07/07 07:59:17;;;;;;;;;;;23.00;90.00;;;;;;5091009;28;20381;-53
2023/07/07 08:01:42;;;;;;;;;;;23.00;90.10;;;;;;5095748;28;20014;-51
2023/07/07 08:04:08;;;;;;;;;;;23.00;90.10;;;;;;5096466;28;20279;-51
2023/07/07 08:06:34;;;;;;;;;;;23.00;90.10;;;;;;5095590;28;19908;-50
2023/07/07 08:08:59;;;;;;;;;;;22.90;90.00;;;;;;5095727;28;19915;-50
2023/07/07 08:11:40;;;;;;;;;;;23.00;90.10;;;;;;5099440;28;19916;-52
2023/07/07 08:14:09;;;;;;;;;;;23.00;90.00;;;;;;5089394;28;19912;-54
2023/07/07 08:16:34;;;;;;;;;;;23.00;89.90;;;;;;5106309;28;19911;-53
2023/07/07 08:19:00;;;;;;;;;;;23.00;89.80;;;;;;5098144;28;20050;-51
2023/07/07 08:21:25;;;;;;;;;;;23.00;89.80;;;;;;5086778;28;19908;-50
2023/07/07 08:23:51;;;;;;;;;;;22.90;89.80;;;;;;5115309;28;19907;-53
2023/07/07 08:26:16;;;;;;;;;;;23.00;89.70;;;;;;5104501;28;19966;-53
2023/07/07 08:28:41;;;;;;;;;;;23.00;89.80;;;;;;5100893;28;19934;-50
2023/07/07 08:31:07;;;;;;;;;;;23.00;89.40;;;;;;5095874;28;19959;-53
2023/07/07 08:33:32;;;;;;;;;;;23.00;89.30;;;;;;5115394;28;19912;-49
2023/07/07 08:35:58;;;;;;;;;;;22.90;89.20;;;;;;5115221;28;20406;-50
2023/07/07 08:38:24;;;;;;;;;;;22.90;89.50;;;;;;5115119;28;19907;-51
2023/07/07 08:40:54;;;;;;;;;;;23.00;88.90;;;;;;5115117;28;20297;-52
2023/07/07 08:43:20;;;;;;;;;;;23.00;88.80;;;;;;5114991;28;19908;-54
2023/07/07 08:46:01;;;;;;;;;;;22.90;89.10;;;;;;5115440;28;19919;-51
2023/07/07 08:48:50;;;;;;;;;;;22.90;88.90;;;;;;5115331;28;19907;-54
2023/07/07 08:51:25;;;;;;;;;;;22.90;89.00;;;;;;5099168;28;19911;-52
2023/07/07 08:54:17;;;;;;;;;;;22.90;89.00;;;;;;5114849;28;19916;-50
2023/07/07 08:56:49;;;;;;;;;;;22.90;88.80;;;;;;5109762;28;20019;-50
2023/07/07 08:59:18;;;;;;;;;;;22.90;88.90;;;;;;5114669;28;19998;-52
2023/07/07 09:01:48;;;;;;;;;;;22.90;88.90;;;;;;5114586;28;19908;-52
2023/07/07 09:04:18;;;;;;;;;;;22.90;88.90;;;;;;5114636;28;19908;-52
2023/07/07 09:06:53;;;;;;;;;;;22.90;89.10;;;;;;5114648;28;19953;-53
2023/07/07 09:09:37;;;;;;;;;;;23.00;88.70;;;;;;5107280;28;19912;-52
2023/07/07 09:12:16;;;;;;;;;;;22.90;88.30;;;;;;5101314;28;19916;-51
2023/07/07 09:14:42;;;;;;;;;;;23.00;89.50;;;;;;5079110;28;19916;-48
2023/07/07 09:17:24;;;;;;;;;;;22.90;82.90;;;;;;5094004;28;19912;-50
2023/07/07 09:19:51;;;;;;;;;;;22.90;81.10;;;;;;5093731;28;20382;-53
2023/07/07 09:22:25;;;;;;;;;;;22.90;80.00;;;;;;5095516;28;19912;-53
2023/07/07 09:24:58;;;;;;;;;;;22.90;81.60;;;;;;5093902;28;19914;-51
2023/07/07 09:27:28;;;;;;;;;;;22.90;82.60;;;;;;5094283;28;19962;-50
2023/07/07 09:29:59;;;;;;;;;;;22.90;83.40;;;;;;5094115;28;20359;-50
2023/07/07 09:32:25;;;;;;;;;;;22.90;84.70;;;;;;5093977;28;19919;-53
2023/07/07 09:34:50;;;;;;;;;;;22.90;85.50;;;;;;5093739;28;19952;-48
2023/07/07 09:37:38;;;;;;;;;;;22.90;86.20;;;;;;5075951;28;19909;-53
2023/07/07 09:40:09;;;;;;;;;;;22.90;86.90;;;;;;5093957;28;19908;-53
2023/07/07 09:42:53;;;;;;;;;;;22.90;86.70;;;;;;5094589;28;19908;-51
2023/07/07 09:45:27;;;;;;;;;;;22.90;86.80;;;;;;5094178;28;19920;-53
2023/07/07 09:47:58;;;;;;;;;;;22.90;86.50;;;;;;5093827;28;20380;-49
2023/07/07 09:50:24;;;;;;;;;;;22.90;87.10;;;;;;5093843;28;20006;-50
2023/07/07 09:52:56;;;;;;;;;;;22.90;86.70;;;;;;5093963;28;19955;-51
2023/07/07 09:55:24;;;;;;;;;;;22.90;87.00;;;;;;5094271;28;19916;-51
2023/07/07 09:58:01;;;;;;;;;;;22.90;87.20;;;;;;5093977;28;20376;-53
2023/07/07 10:00:28;;;;;;;;;;;22.90;87.30;;;;;;5075718;28;20374;-50
2023/07/07 10:02:54;;;;;;;;;;;22.90;87.30;;;;;;5093784;28;19954;-53
2023/07/07 10:05:22;;;;;;;;;;;22.90;87.40;;;;;;5093314;28;19997;-52
2023/07/07 10:07:47;;;;;;;;;;;22.90;87.60;;;;;;5093260;28;19969;-49
2023/07/07 10:10:13;;;;;;;;;;;22.90;87.50;;;;;;5093612;28;19912;-52
2023/07/07 10:12:39;;;;;;;;;;;22.90;87.60;;;;;;5093249;28;20121;-52
2023/07/07 10:15:23;;;;;;;;;;;22.90;87.20;;;;;;5093149;28;19916;-55
2023/07/07 10:17:58;;;;;;;;;;;22.90;87.10;;;;;;5093105;28;20359;-50
2023/07/07 10:20:23;;;;;;;;;;;22.90;87.30;;;;;;5075429;28;19912;-54
2023/07/07 10:22:49;;;;;;;;;;;22.90;87.70;;;;;;5093294;28;19908;-50
2023/07/07 10:25:15;;;;;;;;;;;22.90;88.20;;;;;;5093596;28;19908;-53
2023/07/07 10:27:47;;;;;;;;;;;22.90;87.90;;;;;;5093296;28;19922;-51
2023/07/07 10:30:12;;;;;;;;;;;22.90;87.80;;;;;;5093336;28;19919;-50
2023/07/07 10:32:38;;;;;;;;;;;22.90;87.70;;;;;;5093570;28;19912;-50
2023/07/07 10:35:05;;;;;;;;;;;22.90;87.70;;;;;;5096109;28;19916;-51
2023/07/07 10:37:33;;;;;;;;;;;22.90;88.10;;;;;;5100236;28;19911;-54
2023/07/07 10:40:00;;;;;;;;;;;22.90;88.40;;;;;;5096865;28;19919;-51
2023/07/07 10:42:27;;;;;;;;;;;22.90;81.80;;;;;;5095794;28;19912;-53
2023/07/07 10:44:54;;;;;;;;;;;22.90;81.60;;;;;;5079128;28;20263;-53
2023/07/07 10:47:29;;;;;;;;;;;22.80;82.00;;;;;;5076599;28;19947;-51
2023/07/07 10:49:58;;;;;;;;;;;22.90;83.60;;;;;;5076617;28;19915;-48
2023/07/07 10:52:43;;;;;;;;;;;22.90;84.90;;;;;;5076441;28;19913;-51
2023/07/07 10:55:27;;;;;;;;;;;22.80;86.00;;;;;;5076410;28;19988;-52
2023/07/07 10:58:11;;;;;;;;;;;22.90;85.90;;;;;;5076861;28;20018;-51
2023/07/07 11:00:58;;;;;;;;;;;22.90;86.50;;;;;;5076517;28;19947;-54
2023/07/07 11:03:27;;;;;;;;;;;22.90;86.60;;;;;;5076275;28;19980;-52
2023/07/07 11:06:01;;;;;;;;;;;22.80;87.00;;;;;;5076197;28;20224;-50
2023/07/07 11:08:32;;;;;;;;;;;22.90;86.90;;;;;;5076501;28;20344;-51
2023/07/07 11:11:07;;;;;;;;;;;22.90;86.50;;;;;;5075821;28;20424;-51
2023/07/07 11:13:47;;;;;;;;;;;22.90;86.50;;;;;;5076675;28;19916;-50
2023/07/07 11:16:20;;;;;;;;;;;22.90;87.10;;;;;;5075879;28;20328;-47
2023/07/07 11:18:48;;;;;;;;;;;22.90;87.20;;;;;;5076165;28;19909;-52
2023/07/07 11:21:13;;;;;;;;;;;22.90;87.30;;;;;;5075540;28;19908;-51
2023/07/07 11:23:54;;;;;;;;;;;22.90;87.30;;;;;;5076402;28;19962;-52
2023/07/07 11:26:37;;;;;;;;;;;22.90;87.30;;;;;;5075782;28;19909;-52
2023/07/07 11:29:07;;;;;;;;;;;22.90;87.50;;;;;;5076045;28;20007;-53
2023/07/07 11:31:51;;;;;;;;;;;22.90;87.10;;;;;;5075899;28;19920;-49
2023/07/07 11:34:35;;;;;;;;;;;22.90;87.30;;;;;;5075587;28;19912;-53
2023/07/07 11:37:01;;;;;;;;;;;22.90;87.30;;;;;;5057860;28;19908;-52
2023/07/07 11:39:36;;;;;;;;;;;22.90;87.50;;;;;;5075948;28;19915;-53
2023/07/07 11:42:11;;;;;;;;;;;22.80;87.20;;;;;;5075580;28;19909;-54
2023/07/07 11:44:36;;;;;;;;;;;22.90;87.50;;;;;;5057576;28;19955;-54
2023/07/07 11:47:13;;;;;;;;;;;22.90;87.60;;;;;;5074593;28;19909;-53
2023/07/07 11:49:42;;;;;;;;;;;22.90;87.60;;;;;;5075505;28;19912;-53
2023/07/07 11:52:10;;;;;;;;;;;22.90;87.60;;;;;;5075245;28;19956;-54
2023/07/07 11:54:43;;;;;;;;;;;22.90;87.80;;;;;;5075422;28;19917;-52
2023/07/07 11:57:08;;;;;;;;;;;22.90;87.90;;;;;;5075722;28;19995;-50
2023/07/07 11:59:44;;;;;;;;;;;22.90;88.00;;;;;;5075448;28;19955;-49
2023/07/07 12:02:14;;;;;;;;;;;22.90;88.00;;;;;;5075046;28;20256;-52
2023/07/07 12:04:41;;;;;;;;;;;22.90;87.90;;;;;;5075046;28;20385;-52
2023/07/07 12:07:29;;;;;;;;;;;22.90;88.00;;;;;;5075245;28;19961;-54
2023/07/07 12:09:54;;;;;;;;;;;22.90;88.10;;;;;;5074781;28;19908;-53
2023/07/07 12:12:23;;;;;;;;;;;22.90;88.10;;;;;;5075193;28;19912;-52
2023/07/07 12:15:07;;;;;;;;;;;22.90;88.10;;;;;;5075168;28;19960;-54
2023/07/07 12:17:36;;;;;;;;;;;22.90;88.10;;;;;;5057126;28;19908;-52
2023/07/07 12:20:04;;;;;;;;;;;22.90;88.20;;;;;;5057033;28;19908;-52
2023/07/07 12:22:30;;;;;;;;;;;22.90;88.00;;;;;;5074675;28;19909;-52
2023/07/07 12:25:02;;;;;;;;;;;22.90;88.00;;;;;;5074688;28;20358;-53
2023/07/07 12:27:39;;;;;;;;;;;22.90;88.00;;;;;;5074761;28;20436;-53
2023/07/07 12:30:06;;;;;;;;;;;22.90;88.00;;;;;;5074920;28;19908;-52
2023/07/07 12:32:32;;;;;;;;;;;22.90;88.10;;;;;;5074472;28;20374;-50
2023/07/07 12:35:02;;;;;;;;;;;22.90;87.80;;;;;;5074901;28;19959;-49
2023/07/07 12:37:28;;;;;;;;;;;22.80;88.10;;;;;;5074756;28;19959;-50
2023/07/07 12:40:00;;;;;;;;;;;22.90;88.20;;;;;;5074498;28;20268;-48
2023/07/07 12:42:28;;;;;;;;;;;22.90;88.10;;;;;;5074634;28;19934;-51
2023/07/07 12:44:55;;;;;;;;;;;22.90;88.30;;;;;;5074234;28;19920;-49
2023/07/07 12:47:30;;;;;;;;;;;22.90;88.20;;;;;;5074430;28;19913;-54
2023/07/07 12:49:57;;;;;;;;;;;22.90;88.20;;;;;;5074454;28;19915;-51
2023/07/07 12:52:24;;;;;;;;;;;22.80;88.00;;;;;;5074094;28;19966;-51
2023/07/07 12:55:02;;;;;;;;;;;22.90;88.00;;;;;;5073413;28;20416;-48
2023/07/07 12:57:28;;;;;;;;;;;22.90;88.20;;;;;;5073602;28;19912;-50
2023/07/07 13:00:13;;;;;;;;;;;22.90;88.30;;;;;;5074405;28;20308;-51
2023/07/07 13:02:54;;;;;;;;;;;22.90;88.30;;;;;;5074081;28;19909;-51
2023/07/07 13:05:21;;;;;;;;;;;22.90;88.40;;;;;;5074238;28;19931;-53
2023/07/07 13:07:57;;;;;;;;;;;22.80;88.30;;;;;;5073945;28;20403;-50
2023/07/07 13:10:33;;;;;;;;;;;22.90;88.20;;;;;;5074062;28;19915;-50
2023/07/07 13:13:17;;;;;;;;;;;22.90;88.00;;;;;;5073888;28;19970;-52
2023/07/07 13:15:43;;;;;;;;;;;22.90;88.10;;;;;;5074256;28;19991;-54
2023/07/07 13:18:08;;;;;;;;;;;22.90;87.80;;;;;;5074004;28;20295;-47
2023/07/07 13:20:36;;;;;;;;;;;22.90;87.90;;;;;;5074195;28;19912;-52
2023/07/07 13:23:17;;;;;;;;;;;22.90;88.00;;;;;;5076099;28;20007;-49
2023/07/07 13:25:45;;;;;;;;;;;22.90;87.80;;;;;;5092707;28;19923;-50
2023/07/07 13:28:12;;;;;;;;;;;22.90;87.90;;;;;;5102850;28;19908;-54
2023/07/07 13:30:41;;;;;;;;;;;22.90;88.00;;;;;;5096919;28;19926;-53
2023/07/07 13:33:08;;;;;;;;;;;22.90;87.90;;;;;;5082947;28;19912;-48
2023/07/07 13:35:35;;;;;;;;;;;22.90;88.20;;;;;;5093795;28;20434;-51
2023/07/07 13:38:13;;;;;;;;;;;22.90;88.10;;;;;;5077329;28;19908;-54
2023/07/07 13:40:39;;;;;;;;;;;22.90;88.30;;;;;;5091603;28;20371;-54
2023/07/07 13:43:06;;;;;;;;;;;22.90;88.20;;;;;;5091912;28;19915;-52
2023/07/07 13:45:35;;;;;;;;;;;22.90;88.20;;;;;;5091828;28;20563;-54
2023/07/07 13:48:07;;;;;;;;;;;22.90;88.30;;;;;;5091397;28;19920;-50
2023/07/07 13:50:32;;;;;;;;;;;22.90;88.50;;;;;;5091490;28;19927;-56
2023/07/07 13:52:59;;;;;;;;;;;22.90;88.50;;;;;;5092116;28;19916;-53
2023/07/07 13:55:27;;;;;;;;;;;22.90;88.60;;;;;;5094086;28;19931;-53
2023/07/07 13:57:52;;;;;;;;;;;22.90;88.40;;;;;;5093896;28;19915;-53
2023/07/07 14:00:19;;;;;;;;;;;22.90;88.70;;;;;;5093466;28;20279;-52
2023/07/07 14:02:45;;;;;;;;;;;22.90;88.80;;;;;;5093962;28;20373;-53
2023/07/07 14:05:14;;;;;;;;;;;22.90;88.80;;;;;;5075759;28;19998;-55
2023/07/07 14:07:40;;;;;;;;;;;22.90;88.90;;;;;;5093663;28;20003;-52
2023/07/07 14:10:26;;;;;;;;;;;22.90;88.80;;;;;;5096444;28;19997;-52
2023/07/07 14:12:51;;;;;;;;;;;22.90;88.90;;;;;;5097019;28;19916;-54
2023/07/07 14:15:18;;;;;;;;;;;22.90;88.80;;;;;;5097624;28;20274;-52
2023/07/07 14:17:44;;;;;;;;;;;22.90;89.00;;;;;;5097897;28;19919;-52
2023/07/07 14:20:12;;;;;;;;;;;22.90;88.90;;;;;;5097865;28;20266;-51
2023/07/07 14:22:38;;;;;;;;;;;22.90;88.90;;;;;;5097587;28;19946;-53